createdAt,value
2023-08-19T00:01:38.375Z,21.88
2023-08-19T00:04:06.986Z,21.85
2023-08-19T00:06:36.597Z,21.81
2023-08-19T00:09:06.038Z,21.78
2023-08-19T00:11:35.103Z,21.73
2023-08-19T00:14:07.070Z,21.67
2023-08-19T00:16:35.947Z,21.61
2023-08-19T00:19:04.745Z,21.56
2023-08-19T00:21:33.071Z,21.51
2023-08-19T00:24:01.620Z,21.45
2023-08-19T00:26:31.319Z,21.40
2023-08-19T00:28:59.916Z,21.34
2023-08-19T00:31:29.254Z,21.29
2023-08-19T00:33:57.645Z,21.23
2023-08-19T00:36:26.794Z,21.18
2023-08-19T00:39:00.397Z,21.13
2023-08-19T00:41:28.564Z,21.10
2023-08-19T00:43:57.664Z,21.07
2023-08-19T00:46:26.273Z,21.04
2023-08-19T00:48:54.758Z,21.01
2023-08-19T00:51:23.233Z,21.00
2023-08-19T00:53:52.419Z,20.98
2023-08-19T00:56:20.705Z,20.97
2023-08-19T00:58:50.209Z,20.96
2023-08-19T01:01:19.485Z,20.96
2023-08-19T01:03:47.979Z,20.95
2023-08-19T01:06:22.732Z,20.92
2023-08-19T01:08:54.527Z,20.91
2023-08-19T01:11:41.589Z,20.91
2023-08-19T01:14:21.590Z,20.90
2023-08-19T01:16:51.870Z,20.91
2023-08-19T01:19:33.102Z,20.90
2023-08-19T01:22:04.538Z,20.89
2023-08-19T01:24:39.546Z,20.87
2023-08-19T01:27:22.157Z,20.85
2023-08-19T01:29:50.531Z,20.82
2023-08-19T01:32:20.556Z,20.79
2023-08-19T01:34:49.243Z,20.74
2023-08-19T01:37:40.670Z,20.70
2023-08-19T01:40:11.760Z,20.64
2023-08-19T01:42:40.505Z,20.60
2023-08-19T01:45:09.591Z,20.54
2023-08-19T01:47:39.031Z,20.50
2023-08-19T01:50:07.993Z,20.46
2023-08-19T01:52:36.978Z,20.41
2023-08-19T01:55:06.113Z,20.38
2023-08-19T01:57:35.654Z,20.37
2023-08-19T02:00:05.336Z,20.35
2023-08-19T02:02:42.945Z,20.33
2023-08-19T02:05:16.252Z,20.30
2023-08-19T02:07:45.340Z,20.26
2023-08-19T02:10:13.881Z,20.22
2023-08-19T02:12:42.303Z,20.18
2023-08-19T02:15:11.070Z,20.15
2023-08-19T02:17:39.646Z,20.12
2023-08-19T02:20:09.146Z,20.09
2023-08-19T02:22:38.074Z,20.08
2023-08-19T02:25:06.634Z,20.07
2023-08-19T02:27:35.281Z,20.04
2023-08-19T02:30:04.093Z,20.02
2023-08-19T02:32:32.748Z,20.03
2023-08-19T02:35:02.432Z,20.05
2023-08-19T02:37:32.051Z,20.07
2023-08-19T02:40:00.782Z,20.08
2023-08-19T02:42:29.404Z,20.09
2023-08-19T02:44:58.358Z,20.09
2023-08-19T02:47:26.700Z,20.08
2023-08-19T02:49:55.249Z,20.09
2023-08-19T02:52:24.022Z,20.09
2023-08-19T02:54:52.214Z,20.09
2023-08-19T02:57:20.463Z,20.10
2023-08-19T02:59:49.162Z,20.11
2023-08-19T03:02:17.549Z,20.12
2023-08-19T03:04:45.917Z,20.14
2023-08-19T03:07:14.662Z,20.13
2023-08-19T03:09:45.859Z,20.12
2023-08-19T03:12:14.333Z,20.11
2023-08-19T03:14:42.860Z,20.09
2023-08-19T03:17:11.406Z,20.07
2023-08-19T03:19:41.008Z,20.05
2023-08-19T03:22:09.908Z,20.03
2023-08-19T03:24:38.396Z,20.02
2023-08-19T03:27:06.723Z,20.01
2023-08-19T03:29:36.624Z,19.99
2023-08-19T03:32:05.033Z,19.93
2023-08-19T03:34:33.658Z,19.91
2023-08-19T03:37:01.986Z,19.89
2023-08-19T03:39:30.512Z,19.87
2023-08-19T03:41:59.011Z,19.86
2023-08-19T03:44:27.799Z,19.86
2023-08-19T03:46:56.157Z,19.86
2023-08-19T03:49:24.536Z,19.87
2023-08-19T03:51:53.124Z,19.89
2023-08-19T03:54:21.580Z,19.92
2023-08-19T03:56:50.097Z,19.97
2023-08-19T03:59:18.435Z,20.02
2023-08-19T04:01:47.287Z,20.09
2023-08-19T04:04:15.810Z,20.13
2023-08-19T04:23:02.752Z,20.82
2023-08-19T04:25:31.925Z,20.97
2023-08-19T04:28:00.526Z,21.02
2023-08-19T04:30:30.065Z,21.07
2023-08-19T04:32:59.939Z,21.14
2023-08-19T04:35:30.468Z,21.23
2023-08-19T04:37:59.454Z,21.34
2023-08-19T04:40:28.247Z,21.47
2023-08-19T04:42:56.772Z,21.63
2023-08-19T04:45:25.632Z,21.78
2023-08-19T04:47:56.375Z,21.98
2023-08-19T04:50:25.148Z,22.18
2023-08-19T04:52:53.526Z,22.38
2023-08-19T04:55:22.418Z,22.59
2023-08-19T04:57:51.001Z,22.82
2023-08-19T05:00:19.582Z,23.05
2023-08-19T05:02:50.237Z,23.27
2023-08-19T05:05:20.176Z,23.50
2023-08-19T05:07:48.518Z,23.72
2023-08-19T05:10:17.203Z,23.95
2023-08-19T05:12:45.896Z,24.18
2023-08-19T05:15:14.376Z,24.39
2023-08-19T05:17:43.800Z,24.61
2023-08-19T05:20:12.363Z,24.79
2023-08-19T05:22:40.760Z,24.97
2023-08-19T05:25:10.190Z,25.19
2023-08-19T05:27:38.869Z,25.41
2023-08-19T05:30:08.596Z,25.63
2023-08-19T05:32:36.989Z,25.86
2023-08-19T05:35:05.764Z,26.12
2023-08-19T05:37:34.378Z,26.37
2023-08-19T05:40:05.159Z,26.61
2023-08-19T05:42:33.734Z,26.85
2023-08-19T05:45:02.165Z,27.07
2023-08-19T05:47:30.886Z,27.25
2023-08-19T05:49:59.742Z,27.47
2023-08-19T05:52:28.683Z,27.72
2023-08-19T05:54:57.319Z,27.94
2023-08-19T05:57:25.827Z,28.17
2023-08-19T05:59:54.134Z,28.37
2023-08-19T06:02:22.513Z,28.55
2023-08-19T06:04:51.305Z,28.75
2023-08-19T06:07:26.884Z,28.96
2023-08-19T06:09:55.640Z,29.20
2023-08-19T06:12:24.335Z,29.42
2023-08-19T06:14:52.716Z,29.58
2023-08-19T06:17:21.550Z,29.71
2023-08-19T06:19:50.034Z,29.88
2023-08-19T06:22:18.572Z,30.09
2023-08-19T06:24:47.011Z,30.26
2023-08-19T06:27:15.435Z,30.42
2023-08-19T06:29:44.022Z,30.61
2023-08-19T06:32:13.221Z,30.85
2023-08-19T06:35:41.722Z,31.06
2023-08-19T06:39:12.872Z,31.38
2023-08-19T06:42:20.895Z,31.62
2023-08-19T06:45:54.821Z,31.84
2023-08-19T06:49:26.257Z,32.12
2023-08-19T06:52:54.736Z,32.32
2023-08-19T06:56:28.086Z,32.63
2023-08-19T06:59:04.518Z,32.87
2023-08-19T07:01:35.560Z,33.08
2023-08-19T07:04:05.712Z,33.30
2023-08-19T07:06:34.808Z,33.47
2023-08-19T07:09:09.488Z,33.61
2023-08-19T07:11:38.279Z,33.80
2023-08-19T07:14:06.978Z,33.99
2023-08-19T07:16:35.624Z,34.19
2023-08-19T07:19:10.716Z,34.36
2023-08-19T07:21:41.388Z,34.55
2023-08-19T07:24:10.365Z,34.73
2023-08-19T07:26:40.294Z,34.90
2023-08-19T07:29:09.656Z,35.05
2023-08-19T07:31:38.489Z,35.21
2023-08-19T07:34:07.136Z,35.35
2023-08-19T07:36:36.232Z,35.47
2023-08-19T07:39:05.454Z,35.48
2023-08-19T07:41:33.812Z,35.34
2023-08-19T07:44:02.605Z,35.17
2023-08-19T07:46:31.724Z,34.85
2023-08-19T07:49:00.490Z,34.66
2023-08-19T07:51:29.177Z,34.60
2023-08-19T07:53:57.588Z,34.65
2023-08-19T07:56:25.940Z,34.63
2023-08-19T07:58:55.251Z,34.56
2023-08-19T08:01:24.352Z,34.44
2023-08-19T08:03:52.741Z,34.37
2023-08-19T08:06:21.514Z,34.46
2023-08-19T08:08:50.412Z,34.82
2023-08-19T08:11:19.201Z,35.20
2023-08-19T08:13:47.638Z,35.44
2023-08-19T08:16:16.228Z,35.45
2023-08-19T08:18:45.152Z,35.42
2023-08-19T08:21:15.682Z,35.48
2023-08-19T08:23:44.376Z,35.67
2023-08-19T08:26:12.983Z,35.83
2023-08-19T08:28:41.366Z,36.01
2023-08-19T08:31:10.467Z,35.94
2023-08-19T08:33:39.742Z,35.81
2023-08-19T08:36:08.457Z,35.84
2023-08-19T08:38:37.115Z,35.92
2023-08-19T08:41:07.419Z,35.94
2023-08-19T08:43:36.236Z,36.00
2023-08-19T08:46:05.461Z,36.02
2023-08-19T08:48:36.554Z,36.03
2023-08-19T08:51:06.223Z,35.96
2023-08-19T08:53:35.903Z,35.84
2023-08-19T08:56:05.039Z,35.78
2023-08-19T08:58:34.400Z,35.72
2023-08-19T09:01:06.630Z,35.70
2023-08-19T09:03:36.493Z,35.68
2023-08-19T09:06:17.278Z,35.74
2023-08-19T09:09:01.348Z,35.79
2023-08-19T09:11:34.608Z,35.79
2023-08-19T09:14:29.411Z,36.04
2023-08-19T09:16:58.242Z,36.57
2023-08-19T09:19:26.676Z,37.00
2023-08-19T09:22:38.058Z,37.34
2023-08-19T09:26:06.358Z,37.61
2023-08-19T09:29:43.131Z,37.92
2023-08-19T09:32:11.618Z,38.03
2023-08-19T09:34:40.134Z,37.97
2023-08-19T09:37:10.427Z,37.96
2023-08-19T09:39:39.739Z,38.01
2023-08-19T09:42:10.976Z,37.97
2023-08-19T09:44:42.433Z,37.92
2023-08-19T09:47:10.944Z,37.90
2023-08-19T09:49:39.498Z,37.97
2023-08-19T09:52:16.757Z,38.06
2023-08-19T09:54:55.045Z,38.35
2023-08-19T09:57:34.463Z,38.56
2023-08-19T10:00:07.358Z,38.57
2023-08-19T10:02:36.952Z,38.63
2023-08-19T10:05:06.548Z,38.68
2023-08-19T10:07:38.979Z,38.79
2023-08-19T10:10:12.746Z,38.93
2023-08-19T10:12:42.533Z,39.00
2023-08-19T10:15:15.135Z,39.06
2023-08-19T10:17:48.556Z,39.18
2023-08-19T10:20:19.518Z,39.25
2023-08-19T10:22:52.993Z,39.17
2023-08-19T10:25:22.666Z,39.02
2023-08-19T10:27:51.251Z,39.00
2023-08-19T10:30:26.091Z,39.00
2023-08-19T10:32:55.611Z,38.98
2023-08-19T10:35:25.310Z,38.90
2023-08-19T10:37:54.947Z,38.78
2023-08-19T10:40:25.956Z,38.68
2023-08-19T10:43:01.725Z,38.71
2023-08-19T10:45:34.745Z,38.89
2023-08-19T10:48:03.698Z,39.23
2023-08-19T10:50:39.024Z,39.52
2023-08-19T10:53:10.916Z,39.72
2023-08-19T10:55:53.008Z,39.95
2023-08-19T10:58:23.017Z,40.04
2023-08-19T11:00:51.369Z,40.09
2023-08-19T11:03:20.603Z,40.17
2023-08-19T11:05:54.367Z,40.21
2023-08-19T11:08:23.914Z,40.29
2023-08-19T11:10:52.430Z,40.40
2023-08-19T11:13:24.280Z,40.50
2023-08-19T11:16:03.662Z,40.49
2023-08-19T11:18:32.536Z,40.31
2023-08-19T11:21:01.099Z,40.09
2023-08-19T11:23:29.769Z,39.91
2023-08-19T11:26:00.037Z,39.71
2023-08-19T11:28:28.882Z,39.42
2023-08-19T11:30:57.523Z,39.15
2023-08-19T11:33:27.890Z,38.77
2023-08-19T11:35:56.382Z,38.39
2023-08-19T11:38:25.013Z,38.12
2023-08-19T11:40:54.171Z,37.89
2023-08-19T11:43:24.284Z,37.67
2023-08-19T11:45:54.068Z,37.52
2023-08-19T11:48:22.796Z,37.46
2023-08-19T11:50:51.922Z,37.41
2023-08-19T11:53:27.315Z,37.32
2023-08-19T11:56:01.744Z,37.27
2023-08-19T11:58:47.069Z,37.29
2023-08-19T12:01:15.750Z,37.38
2023-08-19T12:03:49.950Z,37.45
2023-08-19T12:06:19.145Z,37.56
2023-08-19T12:08:50.751Z,37.70
2023-08-19T12:11:26.757Z,37.65
2023-08-19T12:13:55.451Z,37.55
2023-08-19T12:16:24.269Z,37.50
2023-08-19T12:18:52.821Z,37.44
2023-08-19T12:21:21.678Z,37.41
2023-08-19T12:23:50.294Z,37.40
2023-08-19T12:26:18.983Z,37.42
2023-08-19T12:28:47.430Z,37.53
2023-08-19T12:31:15.991Z,37.64
2023-08-19T12:33:44.739Z,37.65
2023-08-19T12:36:18.375Z,37.70
2023-08-19T12:38:47.860Z,37.80
2023-08-19T12:41:16.749Z,37.95
2023-08-19T12:43:45.432Z,38.06
2023-08-19T12:46:14.313Z,38.16
2023-08-19T12:48:42.910Z,38.18
2023-08-19T12:51:11.390Z,38.17
2023-08-19T12:53:39.867Z,38.20
2023-08-19T12:57:08.769Z,38.20
2023-08-19T13:00:36.957Z,38.15
2023-08-19T13:03:05.546Z,38.11
2023-08-19T13:05:34.023Z,38.07
2023-08-19T13:08:02.437Z,38.00
2023-08-19T13:10:33.200Z,38.01
2023-08-19T13:13:03.570Z,38.01
2023-08-19T13:15:32.774Z,38.04
2023-08-19T13:18:01.147Z,38.05
2023-08-19T13:20:29.946Z,38.07
2023-08-19T13:22:58.640Z,38.05
2023-08-19T13:25:29.254Z,38.01
2023-08-19T13:27:57.858Z,37.97
2023-08-19T13:30:26.748Z,37.96
2023-08-19T13:32:55.159Z,37.98
2023-08-19T13:35:23.896Z,38.05
2023-08-19T13:37:52.495Z,38.07
2023-08-19T13:40:20.882Z,38.06
2023-08-19T13:42:49.453Z,38.07
2023-08-19T13:45:18.144Z,38.02
2023-08-19T13:48:46.308Z,37.96
2023-08-19T13:52:11.765Z,37.77
2023-08-19T13:54:40.436Z,37.63
2023-08-19T13:57:09.083Z,37.59
2023-08-19T13:59:37.703Z,37.57
2023-08-19T14:02:06.790Z,37.60
2023-08-19T14:04:35.504Z,37.59
2023-08-19T14:07:04.484Z,37.52
2023-08-19T14:09:32.970Z,37.44
2023-08-19T14:12:01.597Z,37.34
2023-08-19T14:14:30.961Z,37.30
2023-08-19T14:16:59.345Z,37.35
2023-08-19T14:19:28.407Z,37.42
2023-08-19T14:21:57.167Z,37.51
2023-08-19T14:24:25.719Z,37.59
2023-08-19T14:26:54.347Z,37.66
2023-08-19T14:29:23.300Z,37.78
2023-08-19T14:31:52.023Z,37.93
2023-08-19T14:34:20.688Z,38.11
2023-08-19T14:36:49.834Z,38.28
2023-08-19T14:39:18.452Z,38.54
2023-08-19T14:41:46.941Z,38.94
2023-08-19T14:44:15.422Z,39.24
2023-08-19T14:46:43.903Z,39.49
2023-08-19T14:49:12.690Z,39.54
2023-08-19T14:51:41.173Z,39.45
2023-08-19T14:54:09.760Z,39.44
2023-08-19T14:56:38.237Z,39.57
2023-08-19T14:59:06.626Z,39.71
2023-08-19T15:01:34.918Z,39.86
2023-08-19T15:04:05.504Z,40.16
2023-08-19T15:06:35.467Z,40.53
2023-08-19T15:09:10.321Z,40.94
2023-08-19T15:11:42.819Z,41.36
2023-08-19T15:14:11.958Z,41.64
2023-08-19T15:16:40.337Z,41.86
2023-08-19T15:19:08.714Z,42.11
2023-08-19T15:21:39.090Z,42.30
2023-08-19T15:24:08.175Z,42.50
2023-08-19T15:26:36.721Z,42.62
2023-08-19T15:29:05.744Z,42.64
2023-08-19T15:31:34.218Z,42.52
2023-08-19T15:34:05.137Z,42.51
2023-08-19T15:36:33.628Z,42.54
2023-08-19T15:39:02.319Z,42.48
2023-08-19T15:41:33.032Z,42.50
2023-08-19T15:44:02.198Z,42.50
2023-08-19T15:46:30.531Z,42.39
2023-08-19T15:48:59.025Z,42.23
2023-08-19T15:51:27.599Z,42.03
2023-08-19T15:53:56.441Z,41.92
2023-08-19T15:56:24.985Z,41.88
2023-08-19T15:58:53.734Z,41.76
2023-08-19T16:01:22.279Z,41.52
2023-08-19T16:03:51.657Z,41.23
2023-08-19T16:06:20.234Z,40.87
2023-08-19T16:08:48.719Z,40.44
2023-08-19T16:11:17.417Z,40.01
2023-08-19T16:13:45.767Z,39.57
2023-08-19T16:16:14.165Z,39.12
2023-08-19T16:18:42.847Z,38.72
2023-08-19T16:21:11.343Z,38.26
2023-08-19T16:23:40.460Z,37.78
2023-08-19T16:26:09.829Z,37.40
2023-08-19T16:28:38.531Z,37.04
2023-08-19T16:31:07.174Z,36.66
2023-08-19T16:33:36.725Z,36.31
2023-08-19T16:36:05.943Z,36.07
2023-08-19T16:38:34.502Z,35.80
2023-08-19T16:41:04.728Z,35.49
2023-08-19T16:43:33.313Z,35.19
2023-08-19T16:46:01.696Z,34.97
2023-08-19T16:48:30.262Z,34.79
2023-08-19T16:50:58.764Z,34.58
2023-08-19T16:53:27.229Z,34.31
2023-08-19T16:56:00.890Z,34.04
2023-08-19T16:58:30.251Z,33.78
2023-08-19T17:01:05.208Z,33.57
2023-08-19T17:03:34.737Z,33.32
2023-08-19T17:06:05.348Z,33.08
2023-08-19T17:08:34.214Z,32.85
2023-08-19T17:11:03.478Z,32.64
2023-08-19T17:13:32.363Z,32.41
2023-08-19T17:16:01.085Z,32.19
2023-08-19T17:18:29.841Z,32.01
2023-08-19T17:20:58.907Z,31.82
2023-08-19T17:23:27.524Z,31.64
2023-08-19T17:25:57.345Z,31.46
2023-08-19T17:28:26.403Z,31.29
2023-08-19T17:31:05.241Z,31.13
2023-08-19T17:33:34.973Z,30.97
2023-08-19T17:36:05.118Z,30.83
2023-08-19T17:38:33.882Z,30.68
2023-08-19T17:41:04.979Z,30.54
2023-08-19T17:43:33.752Z,30.40
2023-08-19T17:46:04.929Z,30.26
2023-08-19T17:48:34.067Z,30.12
2023-08-19T17:51:05.593Z,29.98
2023-08-19T17:53:35.770Z,29.86
2023-08-19T17:56:04.763Z,29.75
2023-08-19T17:58:33.269Z,29.62
2023-08-19T18:01:04.768Z,29.50
2023-08-19T18:03:33.451Z,29.37
2023-08-19T18:06:03.070Z,29.23
2023-08-19T18:08:33.807Z,29.13
2023-08-19T18:11:02.366Z,29.02
2023-08-19T18:13:30.838Z,28.92
2023-08-19T18:15:59.428Z,28.83
2023-08-19T18:18:27.912Z,28.72
2023-08-19T18:20:56.709Z,28.62
2023-08-19T18:23:25.457Z,28.54
2023-08-19T18:25:54.308Z,28.44
2023-08-19T18:28:23.108Z,28.34
2023-08-19T18:30:56.134Z,28.23
2023-08-19T18:33:24.677Z,28.10
2023-08-19T18:35:57.457Z,28.01
2023-08-19T18:38:27.067Z,27.89
2023-08-19T18:40:55.752Z,27.78
2023-08-19T18:43:24.351Z,27.68
2023-08-19T18:45:53.169Z,27.59
2023-08-19T18:48:23.150Z,27.50
2023-08-19T18:50:51.758Z,27.42
2023-08-19T18:53:20.284Z,27.33
2023-08-19T18:55:50.809Z,27.25
2023-08-19T18:58:20.740Z,27.18
2023-08-19T19:00:49.609Z,27.12
2023-08-19T19:03:18.362Z,27.04
2023-08-19T19:05:50.248Z,26.96
2023-08-19T19:08:18.790Z,26.89
2023-08-19T19:10:47.584Z,26.81
2023-08-19T19:13:16.412Z,26.72
2023-08-19T19:15:45.079Z,26.64
2023-08-19T19:18:13.785Z,26.56
2023-08-19T19:20:42.827Z,26.48
2023-08-19T19:23:11.546Z,26.41
2023-08-19T19:25:39.967Z,26.34
2023-08-19T19:28:08.684Z,26.27
2023-08-19T19:30:37.629Z,26.18
2023-08-19T19:33:06.213Z,26.11
2023-08-19T19:35:35.278Z,26.01
2023-08-19T19:38:04.276Z,25.91
2023-08-19T19:40:32.857Z,25.81
2023-08-19T19:43:01.590Z,25.71
2023-08-19T19:45:30.604Z,25.61
2023-08-19T19:47:59.679Z,25.51
2023-08-19T19:50:28.620Z,25.40
2023-08-19T19:52:57.259Z,25.30
2023-08-19T19:55:25.911Z,25.20
2023-08-19T19:57:54.974Z,25.10
2023-08-19T20:00:24.977Z,24.99
2023-08-19T20:02:54.000Z,24.90
2023-08-19T20:05:22.938Z,24.78
2023-08-19T20:07:51.700Z,24.69
2023-08-19T20:10:26.419Z,24.61
2023-08-19T20:12:58.030Z,24.52
2023-08-19T20:15:29.873Z,24.43
2023-08-19T20:18:00.046Z,24.35
2023-08-19T20:20:28.621Z,24.28
2023-08-19T20:22:57.618Z,24.22
2023-08-19T20:25:26.278Z,24.15
2023-08-19T20:27:54.649Z,24.09
2023-08-19T20:30:24.581Z,24.03
2023-08-19T20:32:53.409Z,23.98
2023-08-19T20:35:21.912Z,23.91
2023-08-19T20:37:50.331Z,23.87
2023-08-19T20:40:19.171Z,23.81
2023-08-19T20:42:47.471Z,23.75
2023-08-19T20:45:16.041Z,23.70
2023-08-19T20:47:44.865Z,23.65
2023-08-19T20:50:13.246Z,23.60
2023-08-19T20:52:42.981Z,23.55
2023-08-19T20:55:12.997Z,23.51
2023-08-19T20:57:41.324Z,23.46
2023-08-19T21:00:10.084Z,23.41
2023-08-19T21:02:39.321Z,23.36
2023-08-19T21:05:11.001Z,23.32
2023-08-19T21:07:39.552Z,23.27
2023-08-19T21:10:09.236Z,23.22
2023-08-19T21:12:38.155Z,23.17
2023-08-19T21:15:07.365Z,23.13
2023-08-19T21:17:36.393Z,23.08
2023-08-19T21:20:06.367Z,23.02
2023-08-19T21:22:34.727Z,22.97
2023-08-19T21:25:03.333Z,22.91
2023-08-19T21:27:31.852Z,22.86
2023-08-19T21:30:00.345Z,22.78
2023-08-19T21:32:29.811Z,22.73
2023-08-19T21:34:58.806Z,22.68
2023-08-19T21:37:27.394Z,22.62
2023-08-19T21:39:56.385Z,22.57
2023-08-19T21:42:24.802Z,22.51
2023-08-19T21:44:53.392Z,22.45
2023-08-19T21:47:22.089Z,22.40
2023-08-19T21:49:50.619Z,22.36
2023-08-19T21:52:19.116Z,22.31
2023-08-19T21:54:47.653Z,22.24
2023-08-19T21:57:16.180Z,22.18
2023-08-19T21:59:45.077Z,22.12
2023-08-19T22:02:13.981Z,22.07
2023-08-19T22:04:42.865Z,22.03
2023-08-19T22:07:11.552Z,21.99
2023-08-19T22:09:40.530Z,21.95
2023-08-19T22:12:09.220Z,21.91
2023-08-19T22:14:37.676Z,21.87
2023-08-19T22:17:06.256Z,21.83
2023-08-19T22:19:34.978Z,21.79
2023-08-19T22:22:03.664Z,21.76
2023-08-19T22:24:32.246Z,21.73
2023-08-19T22:27:00.952Z,21.69
2023-08-19T22:29:29.593Z,21.65
2023-08-19T22:31:58.576Z,21.62
2023-08-19T22:34:27.111Z,21.58
2023-08-19T22:36:55.846Z,21.55
2023-08-19T22:39:24.893Z,21.52
2023-08-19T22:41:53.371Z,21.49
2023-08-19T22:44:22.260Z,21.47
2023-08-19T22:46:51.051Z,21.45
2023-08-19T22:49:19.646Z,21.42
2023-08-19T22:51:48.541Z,21.38
2023-08-19T22:54:20.582Z,21.35
2023-08-19T22:56:48.879Z,21.32
2023-08-19T22:59:17.460Z,21.29
2023-08-19T23:01:46.637Z,21.26
2023-08-19T23:04:15.256Z,21.24
2023-08-19T23:06:45.065Z,21.21
2023-08-19T23:09:13.953Z,21.19
2023-08-19T23:11:42.387Z,21.14
2023-08-19T23:14:11.019Z,21.10
2023-08-19T23:16:39.837Z,21.06
2023-08-19T23:19:08.707Z,21.01
2023-08-19T23:21:45.848Z,20.97
2023-08-19T23:24:15.806Z,20.91
2023-08-19T23:26:44.485Z,20.86
2023-08-19T23:29:13.181Z,20.81
2023-08-19T23:31:41.997Z,20.77
2023-08-19T23:34:10.655Z,20.72
2023-08-19T23:36:39.247Z,20.66
2023-08-19T23:39:08.696Z,20.60
2023-08-19T23:41:38.152Z,20.55
2023-08-19T23:44:08.621Z,20.49
2023-08-19T23:46:37.370Z,20.44
2023-08-19T23:49:07.783Z,20.39
2023-08-19T23:51:36.890Z,20.35
2023-08-19T23:54:06.196Z,20.29
2023-08-19T23:56:35.292Z,20.25
2023-08-19T23:59:04.185Z,20.19
